Time;durP1;ratioP1;P1;durP2;ratioP2;P2;SDS_P1;SDS_P2;PMS_P1;PMS_P2;Temp;Humidity;BMP_temperature;BMP_pressure;BME280_temperature;BME280_humidity;BME280_pressure;Samples;Min_cycle;Max_cycle;Signal;HPM_P1;HPM_P2
2022/06/30 01:39:45;;;;;;;17.60;10.15;;;;;;;;;;6088875;23;20198;-89
2022/06/30 01:42:51;;;;;;;17.88;10.45;;;;;;;;;;6088851;23;20177;-90
2022/06/30 01:45:57;;;;;;;16.85;10.20;;;;;;;;;;6087893;23;20173;-88
2022/06/30 01:49:02;;;;;;;14.80;9.95;;;;;;;;;;6087164;23;20237;-88
2022/06/30 01:52:07;;;;;;;16.90;9.80;;;;;;;;;;6086954;23;20234;-89
2022/06/30 01:55:18;;;;;;;16.00;10.02;;;;;;;;;;6091511;23;20201;-87
2022/06/30 01:58:24;;;;;;;16.23;9.65;;;;;;;;;;6095950;23;20210;-88
2022/06/30 02:01:29;;;;;;;19.30;9.30;;;;;;;;;;6088314;23;20182;-89
2022/06/30 02:04:50;;;;;;;16.38;9.43;;;;;;;;;;6087221;23;20169;-88
2022/06/30 02:07:56;;;;;;;20.73;9.73;;;;;;;;;;6087957;23;20174;-90
2022/06/30 02:11:02;;;;;;;16.45;9.68;;;;;;;;;;6104826;23;20290;-89
2022/06/30 02:14:07;;;;;;;14.15;8.68;;;;;;;;;;6088055;23;20170;-89
2022/06/30 02:17:13;;;;;;;14.60;9.18;;;;;;;;;;6088494;23;20170;-88
2022/06/30 02:20:21;;;;;;;15.10;9.02;;;;;;;;;;6088347;23;20174;-88
2022/06/30 02:23:26;;;;;;;14.23;8.90;;;;;;;;;;6086058;23;20233;-89
2022/06/30 02:26:32;;;;;;;15.73;8.90;;;;;;;;;;6088400;23;20162;-89
2022/06/30 02:29:38;;;;;;;17.55;9.90;;;;;;;;;;6088114;23;20239;-89
2022/06/30 02:32:43;;;;;;;14.88;9.25;;;;;;;;;;6087494;23;20178;-89
2022/06/30 02:35:48;;;;;;;15.75;9.48;;;;;;;;;;6087626;23;20580;-89
2022/06/30 02:38:53;;;;;;;14.73;10.02;;;;;;;;;;6087954;23;20185;-89
2022/06/30 02:42:00;;;;;;;24.10;10.40;;;;;;;;;;6088816;23;20194;-89
2022/06/30 02:45:05;;;;;;;17.88;10.23;;;;;;;;;;6088387;23;20177;-88
2022/06/30 02:48:10;;;;;;;16.08;10.05;;;;;;;;;;6088920;23;20633;-89
2022/06/30 02:51:15;;;;;;;13.93;9.68;;;;;;;;;;6087104;23;20237;-88
2022/06/30 02:54:21;;;;;;;20.55;12.27;;;;;;;;;;6087095;23;20170;-88
2022/06/30 02:57:27;;;;;;;21.98;11.50;;;;;;;;;;6087852;23;20221;-88
2022/06/30 03:00:32;;;;;;;22.52;11.52;;;;;;;;;;6087713;23;20174;-87
2022/06/30 03:03:37;;;;;;;21.05;11.73;;;;;;;;;;6088632;23;20169;-88
2022/06/30 03:06:42;;;;;;;21.92;11.35;;;;;;;;;;6089455;23;20173;-88
2022/06/30 03:09:48;;;;;;;18.58;11.38;;;;;;;;;;6089337;23;20174;-89
2022/06/30 03:12:54;;;;;;;21.88;11.95;;;;;;;;;;6087603;23;20249;-88
2022/06/30 03:16:01;;;;;;;24.17;12.25;;;;;;;;;;6088270;23;20178;-88
2022/06/30 03:19:07;;;;;;;23.55;13.30;;;;;;;;;;6088680;23;20166;-89
2022/06/30 03:22:12;;;;;;;23.23;12.48;;;;;;;;;;6087709;23;20199;-89
2022/06/30 03:25:17;;;;;;;24.15;13.75;;;;;;;;;;6089643;23;20282;-90
2022/06/30 03:28:23;;;;;;;23.02;12.18;;;;;;;;;;6087394;23;20165;-89
2022/06/30 03:31:28;;;;;;;25.33;12.85;;;;;;;;;;6087108;23;20174;-89
2022/06/30 03:34:34;;;;;;;25.20;12.43;;;;;;;;;;6085460;23;20244;-89
2022/06/30 03:37:39;;;;;;;21.85;12.65;;;;;;;;;;6088390;23;20181;-89
2022/06/30 03:40:45;;;;;;;23.25;13.43;;;;;;;;;;6087056;23;20173;-88
2022/06/30 03:43:52;;;;;;;23.88;13.57;;;;;;;;;;6088779;23;20321;-89
2022/06/30 03:46:57;;;;;;;21.77;12.98;;;;;;;;;;6086440;23;20178;-89
2022/06/30 03:50:02;;;;;;;25.23;13.05;;;;;;;;;;6088114;23;20174;-89
2022/06/30 03:53:07;;;;;;;26.17;12.52;;;;;;;;;;6103322;23;20265;-89
2022/06/30 03:56:12;;;;;;;28.23;13.32;;;;;;;;;;6087591;23;20665;-89
2022/06/30 03:59:25;;;;;;;26.40;13.82;;;;;;;;;;6087795;23;20190;-89
2022/06/30 04:02:31;;;;;;;28.90;14.10;;;;;;;;;;6084523;23;20505;-89
2022/06/30 04:05:35;;;;;;;27.58;12.90;;;;;;;;;;6089628;23;20182;-89
2022/06/30 04:08:41;;;;;;;25.98;12.65;;;;;;;;;;6086550;23;20513;-89
2022/06/30 04:11:46;;;;;;;21.33;11.80;;;;;;;;;;6085763;23;20162;-89
2022/06/30 04:14:53;;;;;;;20.85;12.10;;;;;;;;;;6089018;23;20174;-89
2022/06/30 04:18:00;;;;;;;28.50;12.63;;;;;;;;;;6089147;23;20178;-89
2022/06/30 04:21:06;;;;;;;22.40;11.98;;;;;;;;;;6108667;23;20228;-89
2022/06/30 04:24:10;;;;;;;23.58;11.88;;;;;;;;;;6090505;23;20170;-89
2022/06/30 04:27:17;;;;;;;26.70;12.30;;;;;;;;;;6086661;23;20558;-89
2022/06/30 04:33:43;;;;;;;24.27;12.35;;;;;;;;;;6103371;23;20270;-89
2022/06/30 04:36:48;;;;;;;22.35;12.88;;;;;;;;;;6089248;23;20287;-89
2022/06/30 04:41:23;;;;;;;22.55;12.77;;;;;;;;;;6104945;23;20191;-90
2022/06/30 04:43:17;;;;;;;19.25;12.05;;;;;;;;;;6105254;23;20266;-90
2022/06/30 04:46:24;;;;;;;23.77;12.75;;;;;;;;;;6090312;23;20166;-88
2022/06/30 04:49:29;;;;;;;27.45;12.85;;;;;;;;;;6088478;23;20245;-88
2022/06/30 04:52:34;;;;;;;21.83;11.98;;;;;;;;;;6089326;23;20174;-89
2022/06/30 04:55:39;;;;;;;23.23;12.02;;;;;;;;;;6089202;23;20192;-89
2022/06/30 05:02:05;;;;;;;23.63;12.73;;;;;;;;;;6088885;23;20252;-89
2022/06/30 05:05:10;;;;;;;22.88;11.60;;;;;;;;;;6090713;23;20170;-90
2022/06/30 05:08:15;;;;;;;21.80;11.60;;;;;;;;;;6091334;23;20170;-90
2022/06/30 05:11:25;;;;;;;24.60;12.00;;;;;;;;;;6088807;23;20222;-89
2022/06/30 05:14:31;;;;;;;21.58;12.18;;;;;;;;;;6088093;23;20248;-90
2022/06/30 05:17:38;;;;;;;22.27;12.32;;;;;;;;;;6093197;23;20186;-89
2022/06/30 05:20:43;;;;;;;24.05;11.63;;;;;;;;;;6091471;23;20169;-89
2022/06/30 05:27:07;;;;;;;18.15;10.75;;;;;;;;;;6108252;23;20258;-89
2022/06/30 05:30:13;;;;;;;20.70;11.35;;;;;;;;;;6093775;23;20218;-89
2022/06/30 05:33:21;;;;;;;18.75;11.45;;;;;;;;;;6090993;23;20170;-90
2022/06/30 05:36:30;;;;;;;22.55;12.60;;;;;;;;;;6092095;23;20205;-90
2022/06/30 05:39:35;;;;;;;22.13;12.70;;;;;;;;;;6092445;23;20194;-89
2022/06/30 05:43:02;;;;;;;25.70;11.98;;;;;;;;;;6090140;23;20174;-88
2022/06/30 05:46:07;;;;;;;19.02;10.93;;;;;;;;;;6090277;23;20491;-89
2022/06/30 05:49:14;;;;;;;23.67;11.90;;;;;;;;;;6091234;23;20157;-87
2022/06/30 05:52:19;;;;;;;20.00;10.55;;;;;;;;;;6110057;23;20169;-89
2022/06/30 05:55:25;;;;;;;18.27;10.75;;;;;;;;;;6092290;23;20620;-88
2022/06/30 05:58:31;;;;;;;18.40;10.82;;;;;;;;;;6107981;23;20173;-89
2022/06/30 06:01:36;;;;;;;19.27;11.00;;;;;;;;;;6092994;23;20201;-88
2022/06/30 06:04:43;;;;;;;23.08;11.63;;;;;;;;;;6092028;23;20625;-89
2022/06/30 06:07:48;;;;;;;18.40;10.98;;;;;;;;;;6091040;23;20174;-89
2022/06/30 06:10:53;;;;;;;17.77;10.07;;;;;;;;;;6090911;23;20629;-89
2022/06/30 06:13:58;;;;;;;21.67;11.45;;;;;;;;;;6089601;23;20225;-90
2022/06/30 06:17:03;;;;;;;19.77;11.20;;;;;;;;;;6090479;23;20279;-90
2022/06/30 06:20:12;;;;;;;20.55;11.23;;;;;;;;;;6109261;23;20222;-88
2022/06/30 06:23:17;;;;;;;18.85;11.13;;;;;;;;;;6090254;23;20171;-89
2022/06/30 06:26:24;;;;;;;19.13;10.77;;;;;;;;;;6089212;23;20177;-90
2022/06/30 06:29:29;;;;;;;19.38;10.65;;;;;;;;;;6091055;23;20238;-88
2022/06/30 06:32:34;;;;;;;18.50;10.40;;;;;;;;;;6091731;23;20173;-89
2022/06/30 06:35:42;;;;;;;20.98;10.57;;;;;;;;;;6092111;23;20238;-89
2022/06/30 06:38:48;;;;;;;19.63;11.18;;;;;;;;;;6089913;23;20213;-90
2022/06/30 06:41:53;;;;;;;21.27;11.65;;;;;;;;;;6089943;23;20173;-91
2022/06/30 06:44:58;;;;;;;20.30;11.27;;;;;;;;;;6090971;23;20148;-89
2022/06/30 06:48:04;;;;;;;21.38;11.73;;;;;;;;;;6090351;23;20169;-89
2022/06/30 06:51:16;;;;;;;20.17;11.07;;;;;;;;;;6090443;23;20166;-90
2022/06/30 06:54:21;;;;;;;21.73;11.05;;;;;;;;;;6088697;23;20173;-89
2022/06/30 06:57:26;;;;;;;19.33;10.93;;;;;;;;;;6089623;23;20222;-89
2022/06/30 07:00:32;;;;;;;20.10;11.80;;;;;;;;;;6086547;23;20182;-88
2022/06/30 07:03:37;;;;;;;16.90;10.57;;;;;;;;;;6088547;23;20271;-89
2022/06/30 07:06:45;;;;;;;19.45;10.73;;;;;;;;;;6091372;23;20169;-89
2022/06/30 07:09:50;;;;;;;19.60;10.35;;;;;;;;;;6088393;23;20182;-88
2022/06/30 07:12:55;;;;;;;16.05;9.52;;;;;;;;;;6090362;23;20157;-90
2022/06/30 07:16:01;;;;;;;15.60;9.45;;;;;;;;;;6087791;23;20197;-89
2022/06/30 07:19:08;;;;;;;18.85;9.13;;;;;;;;;;6089729;23;20169;-90
2022/06/30 07:22:16;;;;;;;17.98;9.10;;;;;;;;;;6089042;23;20595;-89
2022/06/30 07:25:22;;;;;;;16.05;9.68;;;;;;;;;;6088658;23;20174;-91
2022/06/30 07:28:27;;;;;;;17.00;9.27;;;;;;;;;;6088210;23;20185;-91
2022/06/30 07:31:32;;;;;;;13.18;8.63;;;;;;;;;;6087670;23;20174;-90
2022/06/30 07:34:37;;;;;;;11.68;8.15;;;;;;;;;;6088877;23;20157;-90
2022/06/30 07:37:44;;;;;;;15.38;8.57;;;;;;;;;;6092775;23;20283;-89
2022/06/30 22:36:22;;;;;;;14.23;7.32;;;;;;;;;;6178760;23;20211;-90
2022/06/30 22:39:29;;;;;;;14.60;7.90;;;;;;;;;;6181089;23;20277;-89
2022/06/30 22:42:48;;;;;;;14.52;7.32;;;;;;;;;;6207467;23;20159;-89
2022/06/30 22:45:53;;;;;;;16.10;7.38;;;;;;;;;;6207888;23;20175;-88
2022/06/30 22:48:58;;;;;;;13.20;7.30;;;;;;;;;;6208334;23;20171;-89
2022/06/30 22:52:05;;;;;;;13.88;7.40;;;;;;;;;;6209032;23;20285;-90
2022/06/30 22:55:11;;;;;;;16.05;7.78;;;;;;;;;;6208422;23;20171;-90
2022/06/30 22:58:16;;;;;;;15.13;7.22;;;;;;;;;;6207272;23;20195;-89
2022/06/30 23:01:21;;;;;;;15.15;8.43;;;;;;;;;;6206586;23;20162;-89
2022/06/30 23:04:26;;;;;;;21.58;7.70;;;;;;;;;;6206898;23;20171;-90
2022/06/30 23:07:32;;;;;;;11.00;6.05;;;;;;;;;;6205799;23;20226;-89
2022/06/30 23:10:38;;;;;;;12.07;6.32;;;;;;;;;;6206030;23;20218;-90
2022/06/30 23:13:43;;;;;;;17.73;7.00;;;;;;;;;;6207045;23;20159;-89
2022/06/30 23:16:48;;;;;;;14.43;7.50;;;;;;;;;;6208038;23;20236;-89
2022/06/30 23:19:53;;;;;;;13.98;7.57;;;;;;;;;;6206759;23;20167;-88
2022/06/30 23:23:00;;;;;;;13.70;7.00;;;;;;;;;;6207457;23;20174;-89
2022/06/30 23:26:05;;;;;;;9.95;6.18;;;;;;;;;;6207567;23;20498;-89
2022/06/30 23:29:12;;;;;;;14.43;7.38;;;;;;;;;;6207334;23;20422;-90
2022/06/30 23:32:20;;;;;;;10.23;6.93;;;;;;;;;;6206571;23;20170;-89
2022/06/30 23:35:25;;;;;;;12.10;6.03;;;;;;;;;;6205216;23;20171;-88
2022/06/30 23:38:32;;;;;;;14.30;4.82;;;;;;;;;;6207900;23;20194;-89
2022/06/30 23:41:52;;;;;;;9.77;5.53;;;;;;;;;;6210387;23;20218;-88
2022/06/30 23:45:01;;;;;;;14.93;5.90;;;;;;;;;;6205552;23;20171;-89
2022/06/30 23:48:06;;;;;;;7.30;5.07;;;;;;;;;;6206981;23;20160;-89
2022/06/30 23:51:11;;;;;;;10.10;5.88;;;;;;;;;;6206223;23;20174;-88
2022/06/30 23:54:18;;;;;;;12.48;5.47;;;;;;;;;;6207974;23;20195;-90
2022/06/30 23:57:23;;;;;;;15.40;5.80;;;;;;;;;;6207727;23;20194;-90
